Sunday, August 28, 2016
00:29 UTC
  |  Log In   |  Register Free
Airport Search:

Durant Regional - Eaker Field Airport
(KDUA)

Durant Regional - Eaker Field Airport Diagram
No Airport Diagram Available

FAA data valid effective Jul 21 2016 - Sep 15 2016 (unless otherwise noted).

 
 
 
 
 
 
 
 
 
 
 
 
 
 
Current Aviation Weather for KDUA

Weather Summary


The most recent METAR observation for DUA was updated at: 12:55 UTC
METAR for DUA is not available. Closest METAR is for
METAR

METAR KDUA 280015Z 14004KT 10SM CLR 31/21 A2998 RMK AO2

METAR KDUA 272355Z 13007KT 10SM CLR 31/20 A2997 RMK AO2

METAR KDUA 272335Z 13006KT 10SM CLR 32/21 A2997 RMK AO2

METAR KDUA 272315Z 14007KT 10SM CLR 32/21 A2996 RMK AO2

METAR KDUA 272255Z 12005KT 10SM CLR 32/21 A2996 RMK AO2

METAR KDUA 272235Z 14006KT 10SM CLR 32/20 A2997 RMK AO2

METAR KDUA 272215Z 13006KT 10SM CLR 33/20 A2997 RMK AO2

METAR KDUA 272155Z 18005KT 10SM CLR 33/20 A2996 RMK AO2

METAR KDUA 272135Z 13005KT 10SM CLR 33/21 A2996 RMK AO2

METAR KAQR 280015Z 13003KT 10SM CLR 30/18 A2998 RMK AO2

METAR KGYI 280010Z 10005KT 10SM CLR 31/22 A2998 RMK AO2 LTG DSNT NW T03080220

TAF for DUA is not available.
TAF
Sorry we do not have any TAF information for DUA
GlobalAir.com is loading additional information.
 Current Weather at DUA
90.0 F° (32.0 C°)

Southeast winds at 5.8 mph
Pressure:
29.96 in
Humidity:
52%
Wind:
Southeast at 5.8 mph
Dew Point:
69.8 F° (21.0 C°)
Visibility:
10.00 mi
DUA NOAA Radar




Find All Airport Services Find A Hotel Find A Rental Car Find A Golf Course Find A Restaurant $100 Hamburger



Airport Weather Forecast for KDUA

Translated METAR for KDUA (0015 UTC)
METAR:
KDUA 280015Z AUTO Durant Rgnl-Eaker Field, Durant, OK (KDUA). Aug 28, 0015Z, Automated. Wind from 140° at 4 knots, 10 statute miles visibility, Clear Skies, Temperature 31°C, Dewpoint 21°C, Altimeter is 29.98. Remarks: automated station with precipitation discriminator
Conditions at:
KDUA (Durant Rgnl - Eaker Field, OK) observed 0015 UTC 27 August 2016
Temperature:
90.0 F° (32.0 C°)
Dewpoint:
not reported - refer to area weather report
Pressure:
29.96 Hg
Winds:
not reported
Visibility:
10.00
Ceiling:
at least 12,000 feet AGL
Clouds:
not reported - refer to area weather report
Remarks:
site is un-manned

Translated TAF for TAF for DUA is not available. Refer to local area forecast.
FBO's on the Field
FBO Company Facility Photos Services Transportation Aviation Fuel Prices: Prices include tax
Catering Weather Repair Courtesy Rental Type 100LL JetA JetA+ MOGAS 8087
 
D/W Aviation

This FBO has not yet been rated
FS:Avfuel
Last Updated: Jul-22
Login to update fuel prices
SS:
Contact D/W AviationMore FBO Information
 
Add another FBO Facility Photos Catering Weather Repair Courtesy Rental Type 100LL JetA JetA+ MOGAS 8087
Services Transportation Aviation Fuel Prices: Prices include tax


model-print
model-print
model-print
model-print